Time;durP1;ratioP1;P1;durP2;ratioP2;P2;SDS_P1;SDS_P2;PMS_P1;PMS_P2;Temp;Humidity;BMP_temperature;BMP_pressure;BME280_temperature;BME280_humidity;BME280_pressure;Samples;Min_cycle;Max_cycle;Signal;HPM_P1;HPM_P2
2023/02/14 00:02:14;;;;;;;35.42;17.58;;;;;;;;;;6179700;23;20454;-83
2023/02/14 00:04:48;;;;;;;35.53;17.75;;;;;;;;;;6180607;23;20688;-80
2023/02/14 00:07:20;;;;;;;41.22;18.33;;;;;;;;;;6192428;23;20377;-80
2023/02/14 00:09:48;;;;;;;36.00;17.27;;;;;;;;;;6180746;23;20382;-81
2023/02/14 00:12:21;;;;;;;35.50;17.05;;;;;;;;;;6180121;23;20706;-83
2023/02/14 00:17:46;;;;;;;39.63;18.00;;;;;;;;;;6093252;23;20386;-80
2023/02/14 00:20:15;;;;;;;34.67;17.45;;;;;;;;;;6161916;23;20408;-80
2023/02/14 00:22:43;;;;;;;31.17;16.95;;;;;;;;;;6182743;23;20377;-80
2023/02/14 00:25:17;;;;;;;37.63;17.90;;;;;;;;;;6182297;23;20389;-82
2023/02/14 00:27:49;;;;;;;33.67;17.35;;;;;;;;;;6182849;23;20385;-81
2023/02/14 00:30:17;;;;;;;37.15;18.17;;;;;;;;;;6182378;23;20703;-80
2023/02/14 00:32:50;;;;;;;37.35;17.70;;;;;;;;;;6182224;23;20377;-81
2023/02/14 00:35:19;;;;;;;33.90;17.38;;;;;;;;;;6182384;23;20392;-81
2023/02/14 00:37:47;;;;;;;33.63;17.00;;;;;;;;;;6182762;23;20377;-80
2023/02/14 00:40:15;;;;;;;36.10;17.75;;;;;;;;;;6182928;23;20385;-81
2023/02/14 00:42:47;;;;;;;36.97;18.27;;;;;;;;;;6182088;23;20381;-81
2023/02/14 00:45:17;;;;;;;37.20;18.08;;;;;;;;;;6206798;23;20711;-81
2023/02/14 00:47:50;;;;;;;34.50;17.60;;;;;;;;;;6182790;23;20381;-81
2023/02/14 00:50:24;;;;;;;34.47;17.55;;;;;;;;;;6182709;23;20398;-81
2023/02/14 00:52:52;;;;;;;37.67;18.47;;;;;;;;;;6207672;23;20377;-81
2023/02/14 00:55:25;;;;;;;35.63;18.23;;;;;;;;;;6182085;23;20389;-82
2023/02/14 00:57:58;;;;;;;35.33;17.37;;;;;;;;;;6182365;23;20731;-81
2023/02/14 01:00:27;;;;;;;33.72;16.70;;;;;;;;;;6182879;23;20382;-80
2023/02/14 01:02:55;;;;;;;38.30;18.93;;;;;;;;;;6207120;23;20448;-82
2023/02/14 01:05:30;;;;;;;35.30;16.98;;;;;;;;;;6207179;23;20983;-80
2023/02/14 01:07:58;;;;;;;36.28;18.13;;;;;;;;;;6182686;23;20711;-82
2023/02/14 01:10:31;;;;;;;37.60;17.85;;;;;;;;;;6182684;23;20385;-82
2023/02/14 01:12:59;;;;;;;37.92;17.58;;;;;;;;;;6182378;23;20699;-80
2023/02/14 01:15:31;;;;;;;38.53;18.02;;;;;;;;;;6193295;23;20815;-81
2023/02/14 01:18:05;;;;;;;36.10;17.77;;;;;;;;;;6182315;23;20374;-80
2023/02/14 01:20:34;;;;;;;35.87;18.37;;;;;;;;;;6182596;23;20389;-81
2023/02/14 01:23:02;;;;;;;34.22;17.40;;;;;;;;;;6181965;23;20392;-80
2023/02/14 01:25:36;;;;;;;37.15;17.88;;;;;;;;;;6182081;23;20392;-81
2023/02/14 01:28:09;;;;;;;36.80;18.48;;;;;;;;;;6181153;23;20400;-80
2023/02/14 01:30:42;;;;;;;35.67;18.02;;;;;;;;;;6182061;23;20381;-81
2023/02/14 01:33:10;;;;;;;39.03;18.45;;;;;;;;;;6181415;23;20688;-81
2023/02/14 01:35:44;;;;;;;36.10;17.60;;;;;;;;;;6193679;23;20396;-80
2023/02/14 01:38:17;;;;;;;35.87;17.27;;;;;;;;;;6182117;23;20486;-82
2023/02/14 01:40:49;;;;;;;37.20;18.30;;;;;;;;;;6181836;23;20381;-80
2023/02/14 01:43:24;;;;;;;36.97;17.95;;;;;;;;;;6193653;23;20707;-81
2023/02/14 01:45:52;;;;;;;36.88;17.95;;;;;;;;;;6181410;23;20706;-81
2023/02/14 01:48:21;;;;;;;35.65;17.35;;;;;;;;;;6182442;23;20381;-82
2023/02/14 01:50:52;;;;;;;36.90;17.98;;;;;;;;;;6181640;23;20381;-80
2023/02/14 01:53:27;;;;;;;36.78;17.70;;;;;;;;;;6181330;23;20676;-81
2023/02/14 01:55:59;;;;;;;36.20;18.38;;;;;;;;;;6181663;23;20388;-81
2023/02/14 01:58:29;;;;;;;37.15;18.45;;;;;;;;;;6181943;23;20392;-81
2023/02/14 02:01:02;;;;;;;37.07;17.50;;;;;;;;;;6206312;23;20871;-81
2023/02/14 02:03:34;;;;;;;32.70;16.90;;;;;;;;;;6181769;23;20381;-82
2023/02/14 02:06:10;;;;;;;35.80;17.92;;;;;;;;;;6181742;23;20878;-80
2023/02/14 02:08:47;;;;;;;38.27;18.53;;;;;;;;;;6193256;23;20446;-81
2023/02/14 02:11:15;;;;;;;35.50;18.33;;;;;;;;;;6193339;23;20354;-81
2023/02/14 02:13:42;;;;;;;35.33;17.27;;;;;;;;;;6181055;23;20381;-82
2023/02/14 02:16:47;;;;;;;37.60;18.25;;;;;;;;;;6180846;23;20369;-81
2023/02/14 02:19:28;;;;;;;32.38;16.92;;;;;;;;;;6129491;23;20364;-81
2023/02/14 02:22:20;;;;;;;35.30;17.60;;;;;;;;;;6173689;23;20378;-81
2023/02/14 02:24:55;;;;;;;40.08;18.63;;;;;;;;;;6206198;23;20866;-82
2023/02/14 02:27:45;;;;;;;34.78;17.23;;;;;;;;;;6181836;23;20377;-81
2023/02/14 02:30:27;;;;;;;35.58;17.00;;;;;;;;;;6181151;23;20384;-81
2023/02/14 02:33:07;;;;;;;36.63;17.70;;;;;;;;;;6181509;23;20729;-80
2023/02/14 02:35:48;;;;;;;37.63;18.85;;;;;;;;;;6180694;23;20688;-81
2023/02/14 02:38:28;;;;;;;35.67;18.08;;;;;;;;;;6205926;23;20397;-80
2023/02/14 02:40:59;;;;;;;38.83;18.55;;;;;;;;;;6181206;23;20388;-81
2023/02/14 02:43:41;;;;;;;33.22;16.63;;;;;;;;;;6181464;23;20384;-81
2023/02/14 02:48:59;;;;;;;37.03;17.80;;;;;;;;;;6193192;23;20815;-81
2023/02/14 02:54:30;;;;;;;36.33;17.77;;;;;;;;;;6180278;23;20384;-82
2023/02/14 02:56:58;;;;;;;34.90;17.27;;;;;;;;;;6181124;23;20858;-80
2023/02/14 02:59:31;;;;;;;35.28;17.38;;;;;;;;;;6193048;23;21005;-82
2023/02/14 03:02:09;;;;;;;38.97;18.73;;;;;;;;;;6193025;23;20365;-81
2023/02/14 03:04:53;;;;;;;37.72;17.35;;;;;;;;;;6205553;23;20393;-80
2023/02/14 03:07:35;;;;;;;35.38;17.77;;;;;;;;;;6180944;23;20385;-81
2023/02/14 03:10:12;;;;;;;36.72;17.58;;;;;;;;;;6206009;23;20377;-81
2023/02/14 03:12:56;;;;;;;35.92;17.75;;;;;;;;;;6181251;23;20380;-81
2023/02/14 03:15:37;;;;;;;36.67;17.97;;;;;;;;;;6181254;23;20381;-80
2023/02/14 03:18:07;;;;;;;37.90;18.07;;;;;;;;;;6180935;23;20385;-81
2023/02/14 03:20:45;;;;;;;37.38;17.25;;;;;;;;;;6180737;23;20866;-82
2023/02/14 03:23:17;;;;;;;35.67;17.00;;;;;;;;;;6180529;23;20388;-81
2023/02/14 03:25:49;;;;;;;38.25;18.33;;;;;;;;;;6180212;23;20711;-81
2023/02/14 03:28:26;;;;;;;38.50;18.48;;;;;;;;;;6181045;23;20858;-82
2023/02/14 03:31:02;;;;;;;36.17;17.73;;;;;;;;;;6180237;23;20381;-82
2023/02/14 03:33:31;;;;;;;33.53;16.65;;;;;;;;;;6193279;23;20361;-81
2023/02/14 03:36:08;;;;;;;38.45;17.52;;;;;;;;;;6180782;23;20392;-81
2023/02/14 03:38:45;;;;;;;35.70;18.13;;;;;;;;;;6180664;23;20877;-82
2023/02/14 03:41:21;;;;;;;37.28;17.65;;;;;;;;;;6180899;23;20380;-80
2023/02/14 03:43:55;;;;;;;38.50;19.25;;;;;;;;;;6180135;23;20873;-80
2023/02/14 03:46:26;;;;;;;37.40;18.30;;;;;;;;;;6180850;23;20377;-82
2023/02/14 03:49:02;;;;;;;35.97;18.25;;;;;;;;;;6181116;23;20703;-82
2023/02/14 03:51:33;;;;;;;38.95;19.08;;;;;;;;;;6181867;23;20388;-81
2023/02/14 03:54:05;;;;;;;38.25;18.15;;;;;;;;;;6183047;23;20381;-81
2023/02/14 03:56:40;;;;;;;39.85;18.40;;;;;;;;;;6194716;23;20373;-81
2023/02/14 03:59:10;;;;;;;38.35;18.50;;;;;;;;;;6184808;23;20362;-80
2023/02/14 04:01:45;;;;;;;38.60;18.80;;;;;;;;;;6182465;23;20369;-82
2023/02/14 04:04:19;;;;;;;39.03;18.77;;;;;;;;;;6194653;23;20411;-81
2023/02/14 04:06:47;;;;;;;37.20;19.13;;;;;;;;;;6182522;23;20381;-80
2023/02/14 04:09:16;;;;;;;39.30;19.45;;;;;;;;;;6183048;23;20393;-81
2023/02/14 04:11:45;;;;;;;39.63;19.23;;;;;;;;;;6182838;23;20384;-81
2023/02/14 04:14:18;;;;;;;40.90;19.27;;;;;;;;;;6207140;23;20381;-82
2023/02/14 04:19:31;;;;;;;37.87;18.70;;;;;;;;;;6182309;23;20381;-81
2023/02/14 04:21:58;;;;;;;39.47;19.40;;;;;;;;;;6181323;23;20855;-82
2023/02/14 04:24:27;;;;;;;39.30;19.00;;;;;;;;;;6182213;23;20388;-83
2023/02/14 04:27:09;;;;;;;42.05;19.25;;;;;;;;;;6182564;23;20381;-82
2023/02/14 04:29:38;;;;;;;42.78;19.20;;;;;;;;;;6194625;23;20364;-81
2023/02/14 04:32:07;;;;;;;39.42;18.77;;;;;;;;;;6182853;23;20384;-81
2023/02/14 04:34:40;;;;;;;41.85;20.10;;;;;;;;;;6164736;23;20375;-80
2023/02/14 04:37:08;;;;;;;40.70;19.63;;;;;;;;;;6152925;23;20383;-80
2023/02/14 04:39:37;;;;;;;41.95;20.27;;;;;;;;;;6152355;23;20386;-81
2023/02/14 04:42:10;;;;;;;40.30;19.83;;;;;;;;;;6153296;23;20414;-81
2023/02/14 04:44:38;;;;;;;42.35;19.77;;;;;;;;;;6152502;23;20394;-81
2023/02/14 04:47:06;;;;;;;46.63;21.48;;;;;;;;;;6153478;23;20379;-81
2023/02/14 04:49:34;;;;;;;43.35;20.55;;;;;;;;;;6152526;23;20391;-82
2023/02/14 04:52:07;;;;;;;41.70;20.07;;;;;;;;;;6156087;23;20459;-82
2023/02/14 04:54:34;;;;;;;43.25;20.42;;;;;;;;;;6152083;23;20386;-81
2023/02/14 04:57:04;;;;;;;39.97;19.35;;;;;;;;;;6154621;23;20363;-80
2023/02/14 04:59:32;;;;;;;44.80;19.90;;;;;;;;;;6177123;23;20844;-81
2023/02/14 05:02:05;;;;;;;41.83;19.75;;;;;;;;;;6152270;23;20701;-81
2023/02/14 05:04:32;;;;;;;42.75;21.13;;;;;;;;;;6152315;23;20390;-82
2023/02/14 05:07:05;;;;;;;41.95;19.83;;;;;;;;;;6152061;23;20859;-81
2023/02/14 05:09:33;;;;;;;39.50;18.90;;;;;;;;;;6176971;23;20393;-81
2023/02/14 05:12:01;;;;;;;41.58;19.92;;;;;;;;;;6152344;23;20379;-81
2023/02/14 05:14:35;;;;;;;40.05;19.05;;;;;;;;;;6152391;23;20394;-81
2023/02/14 05:17:03;;;;;;;41.05;20.10;;;;;;;;;;6152129;23;20863;-82
2023/02/14 05:19:31;;;;;;;42.97;19.65;;;;;;;;;;6152170;23;20390;-80
2023/02/14 05:22:03;;;;;;;40.45;20.15;;;;;;;;;;6177123;23;20394;-81
2023/02/14 05:24:31;;;;;;;40.47;19.27;;;;;;;;;;6152859;23;20379;-82
2023/02/14 05:27:04;;;;;;;42.03;19.48;;;;;;;;;;6152452;23;20391;-81
2023/02/14 05:29:32;;;;;;;41.60;20.13;;;;;;;;;;6177005;23;20455;-81
2023/02/14 05:32:07;;;;;;;42.38;19.65;;;;;;;;;;6176518;23;20690;-81
2023/02/14 05:34:40;;;;;;;40.60;19.42;;;;;;;;;;6163707;23;20402;-81
2023/02/14 05:37:12;;;;;;;39.33;18.95;;;;;;;;;;6164074;23;20849;-82
2023/02/14 05:39:40;;;;;;;41.00;19.48;;;;;;;;;;6152674;23;20390;-81
2023/02/14 05:42:08;;;;;;;42.25;19.50;;;;;;;;;;6154092;23;20376;-82
2023/02/14 05:44:43;;;;;;;41.13;19.33;;;;;;;;;;6163595;23;20378;-80
2023/02/14 05:47:17;;;;;;;44.08;19.60;;;;;;;;;;6163923;23;20392;-82
2023/02/14 05:49:45;;;;;;;41.72;19.67;;;;;;;;;;6152413;23;20385;-81
2023/02/14 05:52:18;;;;;;;41.92;19.50;;;;;;;;;;6154773;23;20382;-81
2023/02/14 05:54:46;;;;;;;41.95;20.02;;;;;;;;;;6151845;23;20387;-80
2023/02/14 05:57:13;;;;;;;40.22;19.13;;;;;;;;;;6176700;23;20705;-80
2023/02/14 05:59:41;;;;;;;40.45;19.88;;;;;;;;;;6154045;23;20828;-81
2023/02/14 06:02:14;;;;;;;40.08;19.08;;;;;;;;;;6149117;23;20397;-86
2023/02/14 06:04:43;;;;;;;38.75;19.20;;;;;;;;;;6148760;23;20371;-80
2023/02/14 06:07:16;;;;;;;42.08;19.10;;;;;;;;;;6150601;23;20394;-81
2023/02/14 06:09:44;;;;;;;39.60;19.50;;;;;;;;;;6151118;23;20378;-81
2023/02/14 06:12:17;;;;;;;41.10;19.60;;;;;;;;;;6175536;23;20842;-80
2023/02/14 06:14:50;;;;;;;42.80;20.33;;;;;;;;;;6151444;23;20903;-81
2023/02/14 06:17:17;;;;;;;41.73;19.17;;;;;;;;;;6151592;23;20375;-81
2023/02/14 06:19:52;;;;;;;42.00;19.47;;;;;;;;;;6151693;23;20394;-80
2023/02/14 06:22:24;;;;;;;40.03;19.23;;;;;;;;;;6150746;23;20392;-82
2023/02/14 06:24:52;;;;;;;43.63;20.13;;;;;;;;;;6151469;23;20383;-81
2023/02/14 06:27:20;;;;;;;42.72;20.40;;;;;;;;;;6153482;23;20378;-82
2023/02/14 06:29:48;;;;;;;39.85;19.20;;;;;;;;;;6151766;23;20390;-80
2023/02/14 06:32:21;;;;;;;43.63;19.65;;;;;;;;;;6151113;23;20391;-81
2023/02/14 06:34:49;;;;;;;45.85;20.50;;;;;;;;;;6152873;23;20390;-81
2023/02/14 06:37:23;;;;;;;45.67;20.42;;;;;;;;;;6151714;23;20397;-80
2023/02/14 06:39:56;;;;;;;41.78;20.08;;;;;;;;;;6151011;23;20394;-81
2023/02/14 06:42:28;;;;;;;45.03;19.80;;;;;;;;;;6151534;23;20383;-82
2023/02/14 06:45:01;;;;;;;42.30;20.35;;;;;;;;;;6151144;23;20391;-82
2023/02/14 06:47:34;;;;;;;40.40;19.90;;;;;;;;;;6151693;23;20379;-80
2023/02/14 06:50:10;;;;;;;40.70;18.67;;;;;;;;;;6152024;23;20391;-81
2023/02/14 06:52:40;;;;;;;40.60;19.15;;;;;;;;;;6151092;23;20713;-82
2023/02/14 06:55:16;;;;;;;38.85;18.52;;;;;;;;;;6153155;23;20439;-82
2023/02/14 06:57:48;;;;;;;45.38;20.08;;;;;;;;;;6151158;23;20386;-82
2023/02/14 07:00:17;;;;;;;40.00;19.20;;;;;;;;;;6175726;23;20389;-81
2023/02/14 07:02:49;;;;;;;40.92;18.73;;;;;;;;;;6150871;23;20712;-80
2023/02/14 07:05:22;;;;;;;41.13;19.33;;;;;;;;;;6151074;23;20400;-80
2023/02/14 07:07:56;;;;;;;43.15;19.85;;;;;;;;;;6151829;23;20383;-82
2023/02/14 07:10:29;;;;;;;43.50;19.42;;;;;;;;;;6152120;23;20852;-81
2023/02/14 07:12:57;;;;;;;44.03;19.23;;;;;;;;;;6151324;23;20720;-81
2023/02/14 07:15:25;;;;;;;40.92;19.08;;;;;;;;;;6151560;23;20386;-81
2023/02/14 07:17:52;;;;;;;39.88;18.77;;;;;;;;;;6151566;23;20700;-81
2023/02/14 07:20:20;;;;;;;42.03;18.90;;;;;;;;;;6151838;23;20700;-82
2023/02/14 07:22:48;;;;;;;43.97;19.37;;;;;;;;;;6151799;23;20479;-81
2023/02/14 07:25:22;;;;;;;46.30;19.87;;;;;;;;;;6151613;23;20795;-82
2023/02/14 07:27:55;;;;;;;44.92;19.98;;;;;;;;;;6153441;23;20864;-82
2023/02/14 07:30:23;;;;;;;45.42;20.42;;;;;;;;;;6153760;23;20367;-82
2023/02/14 07:32:51;;;;;;;45.17;21.00;;;;;;;;;;6151171;23;20382;-81
2023/02/14 07:35:24;;;;;;;46.27;20.93;;;;;;;;;;6152758;23;20418;-81
2023/02/14 07:37:57;;;;;;;47.03;20.63;;;;;;;;;;6177694;23;20386;-80
2023/02/14 07:40:32;;;;;;;45.70;19.92;;;;;;;;;;6152289;23;20715;-81
2023/02/14 07:43:05;;;;;;;45.88;20.70;;;;;;;;;;6153120;23;20386;-81
2023/02/14 07:45:33;;;;;;;43.47;21.00;;;;;;;;;;6152851;23;20390;-81
2023/02/14 07:48:04;;;;;;;41.65;19.75;;;;;;;;;;6152533;23;20864;-80
2023/02/14 07:50:32;;;;;;;40.50;18.45;;;;;;;;;;6177407;23;20393;-81
2023/02/14 07:53:07;;;;;;;40.85;18.75;;;;;;;;;;6152503;23;20394;-80
2023/02/14 07:55:41;;;;;;;40.20;18.70;;;;;;;;;;6163898;23;20379;-80
2023/02/14 07:58:09;;;;;;;38.92;18.48;;;;;;;;;;6152826;23;20382;-80
2023/02/14 08:00:42;;;;;;;41.78;19.33;;;;;;;;;;6151775;23;20394;-83
2023/02/14 08:03:14;;;;;;;39.65;18.35;;;;;;;;;;6151528;23;20383;-81
2023/02/14 08:05:55;;;;;;;44.28;19.08;;;;;;;;;;6163880;23;20386;-81
2023/02/14 08:08:29;;;;;;;42.20;19.13;;;;;;;;;;6163856;23;20379;-81
2023/02/14 08:11:03;;;;;;;43.78;19.95;;;;;;;;;;6152443;23;20390;-79
2023/02/14 08:13:36;;;;;;;43.08;19.80;;;;;;;;;;6151921;23;20387;-80
2023/02/14 08:16:10;;;;;;;45.33;20.30;;;;;;;;;;6163713;23;20387;-82
2023/02/14 08:18:44;;;;;;;41.15;18.67;;;;;;;;;;6152864;23;20959;-81
2023/02/14 08:21:12;;;;;;;36.37;17.73;;;;;;;;;;6153400;23;20832;-80
2023/02/14 08:23:45;;;;;;;40.45;17.67;;;;;;;;;;6160982;23;20385;-81
2023/02/14 08:26:14;;;;;;;44.35;19.35;;;;;;;;;;6151326;23;20390;-80
2023/02/14 08:28:42;;;;;;;40.72;18.80;;;;;;;;;;6153524;23;20390;-81
2023/02/14 08:31:10;;;;;;;37.00;18.30;;;;;;;;;;6146754;23;20394;-83
2023/02/14 08:33:44;;;;;;;38.38;18.65;;;;;;;;;;6130639;23;20892;-82
2023/02/14 08:36:17;;;;;;;40.15;18.85;;;;;;;;;;6128779;23;20477;-84
2023/02/14 08:38:50;;;;;;;38.45;17.60;;;;;;;;;;6128801;23;20383;-83
2023/02/14 08:41:19;;;;;;;40.72;17.80;;;;;;;;;;6130697;23;20391;-83
2023/02/14 08:43:52;;;;;;;38.00;18.15;;;;;;;;;;6143785;23;20865;-83
2023/02/14 08:46:25;;;;;;;39.17;17.42;;;;;;;;;;6129696;23;20701;-82
2023/02/14 08:48:57;;;;;;;39.10;18.08;;;;;;;;;;6131739;23;20903;-82
2023/02/14 08:51:30;;;;;;;37.03;17.48;;;;;;;;;;6131131;23;20386;-81
2023/02/14 08:54:03;;;;;;;37.53;17.65;;;;;;;;;;6128532;23;20391;-84
2023/02/14 08:56:32;;;;;;;39.72;17.95;;;;;;;;;;6130443;23;20370;-82
2023/02/14 08:59:00;;;;;;;35.13;17.17;;;;;;;;;;6154552;23;20383;-83
2023/02/14 09:01:28;;;;;;;34.03;15.85;;;;;;;;;;6131093;23;20860;-82
2023/02/14 09:04:01;;;;;;;40.33;18.52;;;;;;;;;;6133737;23;20806;-81
2023/02/14 09:06:29;;;;;;;35.90;17.17;;;;;;;;;;6136609;23;21147;-83
2023/02/14 09:09:01;;;;;;;39.35;17.33;;;;;;;;;;6131895;23;20387;-83
2023/02/14 09:11:36;;;;;;;36.28;17.92;;;;;;;;;;6130321;23;20898;-81
2023/02/14 09:14:09;;;;;;;35.35;15.38;;;;;;;;;;6141891;23;20383;-82
2023/02/14 09:16:36;;;;;;;32.05;15.63;;;;;;;;;;6137220;23;20387;-81
2023/02/14 09:19:04;;;;;;;30.50;15.27;;;;;;;;;;6134900;23;20391;-82
2023/02/14 09:21:33;;;;;;;31.50;15.23;;;;;;;;;;6133676;23;20373;-82
2023/02/14 09:24:05;;;;;;;30.70;15.35;;;;;;;;;;6131141;23;20391;-82
2023/02/14 09:26:35;;;;;;;32.15;15.43;;;;;;;;;;6132036;23;20387;-83
2023/02/14 09:29:12;;;;;;;33.20;15.55;;;;;;;;;;6133113;23;20402;-83
2023/02/14 09:31:39;;;;;;;28.10;14.10;;;;;;;;;;6152775;23;20455;-80
2023/02/14 09:34:12;;;;;;;29.70;14.17;;;;;;;;;;6136663;23;21271;-84
2023/02/14 09:39:30;;;;;;;28.73;14.00;;;;;;;;;;6129087;23;20379;-83
2023/02/14 09:42:03;;;;;;;28.75;14.10;;;;;;;;;;6135682;23;20383;-81
2023/02/14 09:44:34;;;;;;;31.27;14.52;;;;;;;;;;6134445;23;20386;-81
2023/02/14 09:47:06;;;;;;;32.20;15.15;;;;;;;;;;6137920;23;20367;-82
2023/02/14 09:49:36;;;;;;;29.25;14.23;;;;;;;;;;6131219;23;20387;-81
2023/02/14 09:52:12;;;;;;;28.48;13.98;;;;;;;;;;6129936;23;20395;-83
2023/02/14 09:54:48;;;;;;;30.83;14.65;;;;;;;;;;6132431;23;20394;-80
2023/02/14 09:57:22;;;;;;;29.95;14.57;;;;;;;;;;6134997;23;20395;-84
2023/02/14 10:00:02;;;;;;;28.63;13.73;;;;;;;;;;6144971;23;20371;-83
2023/02/14 10:02:37;;;;;;;30.00;14.20;;;;;;;;;;6142125;23;20841;-82
2023/02/14 10:05:13;;;;;;;30.88;14.45;;;;;;;;;;6155690;23;20404;-82
2023/02/14 10:07:49;;;;;;;29.25;14.30;;;;;;;;;;6143915;23;20621;-83
2023/02/14 10:10:19;;;;;;;29.13;14.27;;;;;;;;;;6143583;23;20386;-80
2023/02/14 10:12:54;;;;;;;28.25;14.30;;;;;;;;;;6139557;23;20394;-81
2023/02/14 10:15:30;;;;;;;32.80;15.25;;;;;;;;;;6129261;23;20390;-83
2023/02/14 10:18:05;;;;;;;29.10;14.30;;;;;;;;;;6146014;23;20393;-83
2023/02/14 10:20:35;;;;;;;28.85;14.63;;;;;;;;;;6128570;23;20383;-82
2023/02/14 10:23:14;;;;;;;31.17;14.57;;;;;;;;;;6129805;23;20391;-81
2023/02/14 10:25:51;;;;;;;30.90;14.57;;;;;;;;;;6155327;23;20394;-82
2023/02/14 10:28:26;;;;;;;30.13;14.60;;;;;;;;;;6148898;23;20375;-82
2023/02/14 10:30:58;;;;;;;27.42;14.48;;;;;;;;;;6131444;23;20390;-83
2023/02/14 10:33:34;;;;;;;29.90;14.27;;;;;;;;;;6135704;23;20386;-81
2023/02/14 10:36:04;;;;;;;32.10;14.57;;;;;;;;;;6128218;23;20404;-83
2023/02/14 10:38:43;;;;;;;29.83;14.13;;;;;;;;;;6130048;23;20386;-81
2023/02/14 10:41:20;;;;;;;31.00;15.05;;;;;;;;;;6138837;23;20374;-83
2023/02/14 10:43:51;;;;;;;30.70;15.07;;;;;;;;;;6127154;23;20397;-82
2023/02/14 10:46:33;;;;;;;31.33;15.23;;;;;;;;;;6125530;23;20716;-82
2023/02/14 10:49:12;;;;;;;32.53;15.27;;;;;;;;;;6125523;23;20893;-82
2023/02/14 10:51:48;;;;;;;29.48;15.50;;;;;;;;;;6127710;23;20395;-81
2023/02/14 10:54:22;;;;;;;31.30;14.95;;;;;;;;;;6139946;23;20390;-81
2023/02/14 10:56:52;;;;;;;31.15;15.30;;;;;;;;;;6135122;23;20382;-82
2023/02/14 10:59:23;;;;;;;31.60;15.65;;;;;;;;;;6129403;23;20398;-81
2023/02/14 11:01:59;;;;;;;28.63;14.82;;;;;;;;;;6143661;23;20383;-82
2023/02/14 11:04:27;;;;;;;33.00;16.00;;;;;;;;;;6130160;23;20386;-84
2023/02/14 11:06:55;;;;;;;32.03;15.70;;;;;;;;;;6130479;23;20422;-82
2023/02/14 11:09:23;;;;;;;30.83;16.23;;;;;;;;;;6129155;23;20383;-81
2023/02/14 11:11:53;;;;;;;31.50;15.63;;;;;;;;;;6116977;23;20401;-83
2023/02/14 11:14:27;;;;;;;33.08;15.77;;;;;;;;;;6126841;23;20400;-84
2023/02/14 11:17:21;;;;;;;30.83;15.43;;;;;;;;;;6128378;23;20387;-84
2023/02/14 11:19:56;;;;;;;30.90;15.43;;;;;;;;;;6153223;23;20402;-82
2023/02/14 11:22:29;;;;;;;29.92;14.98;;;;;;;;;;6146405;23;20394;-84
2023/02/14 11:25:03;;;;;;;28.23;14.38;;;;;;;;;;6130662;23;20391;-82
2023/02/14 11:27:32;;;;;;;27.27;14.00;;;;;;;;;;6134652;23;20367;-83
2023/02/14 11:30:01;;;;;;;27.53;13.77;;;;;;;;;;6138286;23;20848;-83
2023/02/14 11:32:39;;;;;;;30.10;14.40;;;;;;;;;;6156157;23;20390;-83
2023/02/14 11:35:13;;;;;;;28.27;14.03;;;;;;;;;;6129874;23;20390;-83
2023/02/14 11:37:49;;;;;;;30.83;13.70;;;;;;;;;;6144518;23;20410;-83
2023/02/14 11:40:27;;;;;;;29.20;14.27;;;;;;;;;;6150177;23;20840;-82
2023/02/14 11:42:55;;;;;;;29.98;14.60;;;;;;;;;;6128319;23;20405;-83
2023/02/14 11:45:28;;;;;;;29.48;14.05;;;;;;;;;;6130196;23;20370;-83
2023/02/14 11:48:15;;;;;;;28.90;13.90;;;;;;;;;;6142484;23;20389;-82
2023/02/14 11:50:44;;;;;;;27.17;13.45;;;;;;;;;;6143257;23;20390;-82
2023/02/14 11:53:20;;;;;;;26.17;13.03;;;;;;;;;;6129531;23;20934;-82
2023/02/14 11:55:51;;;;;;;26.92;13.30;;;;;;;;;;6130179;23;20427;-81
2023/02/14 11:58:31;;;;;;;28.13;13.82;;;;;;;;;;6140036;23;21200;-84
2023/02/14 12:01:04;;;;;;;28.13;14.27;;;;;;;;;;6130585;23;20394;-81
2023/02/14 12:03:39;;;;;;;28.83;14.43;;;;;;;;;;6130119;23;20394;-83
2023/02/14 12:06:12;;;;;;;31.58;14.57;;;;;;;;;;6136601;23;20390;-82
2023/02/14 12:08:41;;;;;;;27.92;13.90;;;;;;;;;;6126934;23;20946;-83
2023/02/14 12:11:18;;;;;;;27.43;13.80;;;;;;;;;;6130477;23;20402;-83
2023/02/14 12:13:53;;;;;;;26.60;13.37;;;;;;;;;;6129551;23;20398;-82
2023/02/14 12:16:23;;;;;;;30.88;14.07;;;;;;;;;;6132953;23;20409;-84
2023/02/14 12:18:59;;;;;;;27.40;13.35;;;;;;;;;;6131194;23;20391;-83
2023/02/14 12:21:46;;;;;;;27.98;13.27;;;;;;;;;;6133670;23;20372;-82
2023/02/14 12:24:18;;;;;;;28.33;13.47;;;;;;;;;;6158043;23;20386;-82
2023/02/14 12:26:55;;;;;;;28.15;13.52;;;;;;;;;;6143723;23;20417;-82
2023/02/14 12:29:33;;;;;;;28.35;13.93;;;;;;;;;;6156724;23;20881;-82
2023/02/14 12:32:02;;;;;;;29.88;14.20;;;;;;;;;;6122486;23;20419;-82
2023/02/14 12:34:32;;;;;;;28.38;13.27;;;;;;;;;;6130964;23;20390;-82
2023/02/14 12:37:11;;;;;;;28.52;14.15;;;;;;;;;;6127204;23;20387;-83
2023/02/14 12:40:08;;;;;;;28.70;14.33;;;;;;;;;;6139011;23;20652;-82
2023/02/14 12:42:48;;;;;;;29.10;14.25;;;;;;;;;;6109151;23;20784;-82
2023/02/14 12:45:25;;;;;;;30.92;14.02;;;;;;;;;;6126162;23;20395;-82
2023/02/14 12:47:58;;;;;;;27.65;14.50;;;;;;;;;;6127646;23;20389;-82
2023/02/14 12:50:42;;;;;;;27.55;13.27;;;;;;;;;;6159490;23;20395;-82
2023/02/14 12:53:32;;;;;;;26.42;13.30;;;;;;;;;;6152166;23;20716;-81
2023/02/14 12:56:06;;;;;;;26.88;13.43;;;;;;;;;;6132446;23;21362;-82
2023/02/14 12:58:40;;;;;;;29.35;13.75;;;;;;;;;;6157602;23;20391;-83
2023/02/14 13:01:15;;;;;;;29.77;13.73;;;;;;;;;;6132454;23;20383;-83
2023/02/14 13:03:57;;;;;;;27.40;13.82;;;;;;;;;;6127924;23;20391;-82
2023/02/14 13:06:30;;;;;;;26.48;13.52;;;;;;;;;;6140384;23;21154;-82
2023/02/14 13:09:10;;;;;;;25.95;12.88;;;;;;;;;;6129087;23;20383;-82
2023/02/14 13:11:42;;;;;;;27.35;12.93;;;;;;;;;;6139484;23;20393;-81
2023/02/14 13:14:25;;;;;;;26.85;13.55;;;;;;;;;;6131488;23;20414;-83
2023/02/14 13:17:02;;;;;;;28.63;14.13;;;;;;;;;;6152258;23;20455;-83
2023/02/14 13:19:40;;;;;;;29.00;13.77;;;;;;;;;;6128091;23;20390;-82
2023/02/14 13:22:17;;;;;;;26.77;13.80;;;;;;;;;;6143720;23;20386;-82
2023/02/14 13:24:52;;;;;;;27.13;13.65;;;;;;;;;;6130307;23;20414;-82
2023/02/14 13:27:21;;;;;;;26.77;13.47;;;;;;;;;;6154447;23;20390;-82
2023/02/14 13:29:50;;;;;;;28.95;13.70;;;;;;;;;;6132083;23;20398;-82
2023/02/14 13:32:25;;;;;;;27.48;13.65;;;;;;;;;;6099899;23;20721;-82
2023/02/14 13:34:58;;;;;;;28.77;14.30;;;;;;;;;;6144597;23;20409;-82
2023/02/14 13:37:28;;;;;;;27.67;13.32;;;;;;;;;;6129774;23;20435;-83
2023/02/14 13:40:02;;;;;;;27.37;13.53;;;;;;;;;;6154357;23;20379;-83
2023/02/14 13:42:49;;;;;;;26.83;13.98;;;;;;;;;;6132150;23;20390;-83
2023/02/14 13:45:33;;;;;;;25.38;13.18;;;;;;;;;;6157505;23;20390;-82
2023/02/14 13:48:09;;;;;;;26.83;13.70;;;;;;;;;;6132367;23;20379;-81
2023/02/14 13:50:38;;;;;;;27.25;13.38;;;;;;;;;;6133393;23;20383;-83
2023/02/14 13:53:13;;;;;;;28.40;13.77;;;;;;;;;;6127239;23;20394;-83
2023/02/14 13:55:46;;;;;;;27.33;14.07;;;;;;;;;;6141853;23;20391;-83
2023/02/14 13:58:20;;;;;;;28.35;14.10;;;;;;;;;;6140758;23;20386;-82
2023/02/14 14:00:53;;;;;;;28.90;13.57;;;;;;;;;;6129755;23;20391;-81
2023/02/14 14:03:39;;;;;;;26.88;13.13;;;;;;;;;;6127683;23;20375;-82
2023/02/14 14:06:08;;;;;;;27.43;13.43;;;;;;;;;;6140954;23;20378;-82
2023/02/14 14:08:39;;;;;;;26.23;13.50;;;;;;;;;;6143470;23;20682;-82
2023/02/14 14:11:11;;;;;;;28.95;13.38;;;;;;;;;;6142976;23;20383;-81
2023/02/14 14:14:00;;;;;;;26.00;13.63;;;;;;;;;;6128785;23;20394;-83
2023/02/14 14:16:35;;;;;;;28.17;13.68;;;;;;;;;;6132784;23;20402;-83
2023/02/14 14:19:04;;;;;;;26.10;13.25;;;;;;;;;;6135037;23;20387;-81
2023/02/14 14:21:33;;;;;;;27.08;13.75;;;;;;;;;;6127253;23;20402;-83
2023/02/14 14:24:05;;;;;;;25.38;13.02;;;;;;;;;;6129105;23;20383;-82
2023/02/14 14:26:40;;;;;;;28.23;13.50;;;;;;;;;;6152058;23;20973;-83
2023/02/14 14:29:17;;;;;;;28.35;13.65;;;;;;;;;;6149255;23;20391;-83
2023/02/14 14:31:46;;;;;;;27.77;13.85;;;;;;;;;;6099190;23;20383;-82
2023/02/14 14:34:17;;;;;;;26.33;13.45;;;;;;;;;;6132583;23;20379;-82
2023/02/14 14:36:50;;;;;;;26.08;13.65;;;;;;;;;;6139901;23;20383;-82
2023/02/14 14:39:28;;;;;;;28.45;13.70;;;;;;;;;;6129195;23;20390;-83
2023/02/14 14:42:08;;;;;;;26.30;13.00;;;;;;;;;;6154396;23;21358;-83
2023/02/14 14:44:45;;;;;;;26.75;13.40;;;;;;;;;;6148475;23;21280;-83
2023/02/14 14:47:16;;;;;;;28.33;14.05;;;;;;;;;;6152301;23;20394;-83
2023/02/14 14:49:43;;;;;;;25.60;13.15;;;;;;;;;;6138780;23;20367;-82
2023/02/14 14:52:23;;;;;;;26.65;13.02;;;;;;;;;;6132280;23;20383;-84
2023/02/14 14:54:58;;;;;;;24.88;12.80;;;;;;;;;;6134569;23;20397;-83
2023/02/14 14:57:32;;;;;;;27.00;13.20;;;;;;;;;;6128362;23;20856;-82
2023/02/14 15:00:06;;;;;;;22.88;12.27;;;;;;;;;;6129693;23;20391;-82
2023/02/14 15:02:38;;;;;;;27.30;12.95;;;;;;;;;;6128991;23;20382;-82
2023/02/14 15:05:22;;;;;;;25.63;13.23;;;;;;;;;;6131375;23;21084;-82